Time;durP1;ratioP1;P1;durP2;ratioP2;P2;SDS_P1;SDS_P2;PMS_P1;PMS_P2;Temp;Humidity;BMP_temperature;BMP_pressure;BME280_temperature;BME280_humidity;BME280_pressure;Samples;Min_cycle;Max_cycle;Signal;HPM_P1;HPM_P2
2023/08/17 00:02:47;;;;;;;9.30;8.40;;;;;;;15.34;100.00;97998.88;6203478;28;20224;-44
2023/08/17 00:05:49;;;;;;;8.43;7.67;;;;;;;15.44;100.00;98012.31;6203852;28;20238;-45
2023/08/17 00:08:52;;;;;;;10.10;9.10;;;;;;;15.45;100.00;98017.41;6203379;28;20255;-47
2023/08/17 00:11:54;;;;;;;8.43;7.70;;;;;;;15.46;100.00;98018.22;6203707;28;20234;-45
2023/08/17 00:14:56;;;;;;;9.00;8.20;;;;;;;15.46;100.00;98024.38;6199828;28;20228;-45
2023/08/17 00:17:58;;;;;;;8.97;8.07;;;;;;;15.50;100.00;98030.03;6202031;28;20366;-44
2023/08/17 00:21:00;;;;;;;9.80;9.00;;;;;;;15.37;100.00;98011.72;6204027;28;20228;-44
2023/08/17 00:24:03;;;;;;;8.23;7.50;;;;;;;15.52;100.00;98035.13;6203242;28;20231;-44
2023/08/17 00:27:05;;;;;;;8.90;8.10;;;;;;;15.29;100.00;97999.66;6202898;28;20224;-43
2023/08/17 00:30:08;;;;;;;10.13;9.07;;;;;;;15.49;100.00;98034.59;6203553;28;20216;-42
2023/08/17 00:33:11;;;;;;;10.00;9.10;;;;;;;15.45;100.00;98025.47;6186102;28;20226;-46
2023/08/17 00:36:16;;;;;;;9.50;8.60;;;;;;;15.42;100.00;98028.69;6205925;28;20236;-44
2023/08/17 00:39:19;;;;;;;8.57;7.70;;;;;;;15.29;100.00;98002.34;6202909;28;20669;-45
2023/08/17 00:42:22;;;;;;;8.23;7.53;;;;;;;15.42;100.00;98026.00;6203146;28;20727;-46
2023/08/17 00:45:25;;;;;;;9.20;8.40;;;;;;;15.40;100.00;98027.31;6202983;28;20228;-43
2023/08/17 00:48:29;;;;;;;8.57;7.83;;;;;;;15.37;100.00;98030.53;6203462;28;20871;-43
2023/08/17 00:51:32;;;;;;;8.77;7.90;;;;;;;15.36;100.00;98036.97;6202578;28;20247;-47
2023/08/17 00:54:34;;;;;;;9.50;8.50;;;;;;;15.38;100.00;98022.22;6185030;28;20810;-46
2023/08/17 00:57:36;;;;;;;9.27;8.20;;;;;;;15.38;100.00;98029.47;6202639;28;20240;-46
2023/08/17 01:00:40;;;;;;;9.10;8.20;;;;;;;15.35;100.00;98038.06;6202457;28;20232;-47
2023/08/17 01:03:43;;;;;;;9.57;8.30;;;;;;;15.34;100.00;98034.56;6202985;28;20605;-44
2023/08/17 01:06:46;;;;;;;9.27;8.47;;;;;;;15.21;100.00;98019.75;6203165;28;20251;-44
2023/08/17 01:09:48;;;;;;;9.50;8.40;;;;;;;15.18;100.00;98016.81;6181661;28;20718;-44
2023/08/17 01:13:05;;;;;;;8.10;7.40;;;;;;;15.28;100.00;98024.09;6203614;28;20267;-44
2023/08/17 01:16:12;;;;;;;9.13;8.33;;;;;;;15.25;100.00;98021.91;6185292;28;20304;-45
2023/08/17 01:19:25;;;;;;;8.93;8.13;;;;;;;15.32;100.00;98038.56;6186290;28;20922;-43
2023/08/17 01:22:33;;;;;;;8.80;8.00;;;;;;;15.23;100.00;98025.69;6199252;28;20240;-44
2023/08/17 01:25:38;;;;;;;8.00;7.30;;;;;;;15.37;100.00;98042.09;6184388;28;20229;-45
2023/08/17 01:28:40;;;;;;;9.47;8.57;;;;;;;15.35;100.00;98040.72;6198276;28;20240;-43
2023/08/17 01:31:52;;;;;;;10.50;8.73;;;;;;;15.14;100.00;98008.47;6214149;28;20737;-44
2023/08/17 01:35:01;;;;;;;13.03;8.80;;;;;;;15.12;100.00;98001.72;6204209;28;20245;-44
2023/08/17 01:38:09;;;;;;;9.40;8.37;;;;;;;15.16;100.00;98017.03;6188282;28;20243;-45
2023/08/17 01:41:15;;;;;;;8.90;8.00;;;;;;;15.23;100.00;98028.34;6204146;28;20256;-45
2023/08/17 01:44:18;;;;;;;10.90;9.13;;;;;;;15.29;100.00;98029.19;6202924;28;20239;-45
2023/08/17 01:47:22;;;;;;;8.50;7.80;;;;;;;15.28;100.00;98038.31;6211810;28;20697;-44
2023/08/17 01:50:25;;;;;;;9.33;8.53;;;;;;;15.28;100.00;98034.81;6206402;28;20255;-46
2023/08/17 01:53:27;;;;;;;9.07;8.17;;;;;;;15.26;100.00;98031.56;6188726;28;20224;-47
2023/08/17 01:56:29;;;;;;;9.13;8.33;;;;;;;15.24;100.00;98023.78;6192327;28;20236;-44
2023/08/17 01:59:31;;;;;;;9.50;8.60;;;;;;;15.25;100.00;98029.97;6188526;28;20225;-44
2023/08/17 02:02:34;;;;;;;7.73;7.13;;;;;;;15.23;100.00;98025.69;6206007;28;20228;-46
2023/08/17 02:05:37;;;;;;;9.13;8.20;;;;;;;15.25;100.00;98027.28;6188499;28;20258;-43
2023/08/17 02:08:40;;;;;;;10.50;9.60;;;;;;;15.25;100.00;98021.91;6203524;28;20228;-45
2023/08/17 02:11:43;;;;;;;9.67;8.87;;;;;;;15.22;100.00;98021.38;6188344;28;20228;-46
2023/08/17 02:14:45;;;;;;;10.00;9.10;;;;;;;15.21;100.00;98022.44;6184063;28;20721;-44
2023/08/17 02:17:47;;;;;;;10.77;9.03;;;;;;;15.18;100.00;98022.97;6202701;28;20236;-46
2023/08/17 02:20:50;;;;;;;10.40;9.37;;;;;;;15.16;100.00;98014.34;6205901;28;20310;-45
2023/08/17 02:23:52;;;;;;;11.03;9.93;;;;;;;15.12;100.00;98017.84;6209221;28;20243;-44
2023/08/17 02:26:57;;;;;;;11.20;10.10;;;;;;;15.09;100.00;98021.84;6181488;28;20232;-44
2023/08/17 02:29:59;;;;;;;12.30;10.27;;;;;;;15.07;100.00;98017.81;6205252;28;20236;-44
2023/08/17 02:33:03;;;;;;;10.60;9.50;;;;;;;15.11;100.00;98019.72;6193529;28;20233;-43
2023/08/17 02:36:05;;;;;;;10.27;9.47;;;;;;;15.13;100.00;98027.53;6200944;28;20697;-45
2023/08/17 02:39:08;;;;;;;11.77;9.87;;;;;;;15.14;100.00;98029.94;6205345;28;20632;-45
2023/08/17 02:42:10;;;;;;;12.23;9.97;;;;;;;14.99;100.00;97997.66;6206467;28;20213;-50
2023/08/17 02:45:12;;;;;;;12.63;11.27;;;;;;;15.14;100.00;98021.06;6186331;28;20221;-43
2023/08/17 02:48:15;;;;;;;12.57;11.27;;;;;;;15.12;100.00;98018.66;6190213;28;20228;-45
2023/08/17 02:51:17;;;;;;;12.20;10.90;;;;;;;15.14;100.00;98021.06;6196411;28;20204;-44
2023/08/17 02:54:19;;;;;;;11.43;10.33;;;;;;;15.15;100.00;98026.16;6187668;28;20239;-46
2023/08/17 02:57:21;;;;;;;12.00;10.90;;;;;;;15.09;100.00;98021.06;6205311;28;20300;-44
2023/08/17 03:00:24;;;;;;;11.30;10.13;;;;;;;15.13;100.00;98035.56;6204856;28;20224;-43
2023/08/17 03:03:27;;;;;;;10.60;9.70;;;;;;;15.14;100.00;98032.63;6212589;28;20264;-43
2023/08/17 03:06:29;;;;;;;11.20;10.20;;;;;;;15.16;100.00;98030.47;6204803;28;20235;-45
2023/08/17 03:09:32;;;;;;;11.03;9.87;;;;;;;15.05;100.00;98001.19;6204666;28;20239;-47
2023/08/17 03:12:36;;;;;;;12.40;11.17;;;;;;;15.12;100.00;98028.56;6206477;28;20306;-43
2023/08/17 03:15:40;;;;;;;12.07;10.97;;;;;;;15.05;100.00;97995.81;6201298;28;20736;-45
2023/08/17 03:18:43;;;;;;;11.90;10.70;;;;;;;15.12;100.00;98015.16;6193590;28;20319;-45
2023/08/17 03:21:47;;;;;;;12.17;11.07;;;;;;;15.10;100.00;98020.78;6187513;28;20232;-46
2023/08/17 03:24:49;;;;;;;11.30;10.20;;;;;;;14.95;100.00;97999.25;6204716;28;20232;-45
2023/08/17 03:27:52;;;;;;;12.67;11.53;;;;;;;14.99;100.00;97999.56;6200470;28;20478;-44
2023/08/17 03:30:56;;;;;;;12.40;11.30;;;;;;;15.12;100.00;98021.34;6185412;28;20241;-46
2023/08/17 03:34:00;;;;;;;11.70;10.70;;;;;;;15.13;100.00;98008.72;6187547;28;20232;-45
2023/08/17 03:37:04;;;;;;;11.03;10.03;;;;;;;15.12;100.00;98015.97;6185710;28;20240;-45
2023/08/17 03:40:07;;;;;;;10.40;9.50;;;;;;;15.14;100.00;98011.16;6186150;28;20611;-43
2023/08/17 03:43:10;;;;;;;11.40;9.70;;;;;;;15.12;100.00;98013.28;6186350;28;20232;-44
2023/08/17 03:46:12;;;;;;;12.77;11.50;;;;;;;15.06;100.00;98000.09;6205478;28;20228;-47
2023/08/17 03:49:15;;;;;;;13.10;11.90;;;;;;;14.97;100.00;97986.38;6203958;28;20451;-44
2023/08/17 03:52:17;;;;;;;15.57;12.40;;;;;;;15.02;100.00;98013.22;6194638;28;20236;-44
2023/08/17 03:55:19;;;;;;;14.83;12.33;;;;;;;14.98;100.00;98017.53;6185170;28;20247;-44
2023/08/17 03:58:21;;;;;;;14.43;12.50;;;;;;;14.98;100.00;98019.41;6203178;28;20331;-47
2023/08/17 04:01:24;;;;;;;13.10;11.63;;;;;;;14.95;100.00;98018.84;6203574;28;20240;-45
2023/08/17 04:04:26;;;;;;;12.53;11.40;;;;;;;14.98;100.00;98025.56;6202765;28;20228;-45
2023/08/17 04:07:30;;;;;;;13.10;11.87;;;;;;;14.98;100.00;98030.94;6186730;28;20824;-45
2023/08/17 04:10:32;;;;;;;9.90;9.00;;;;;;;15.03;100.00;98040.91;6199530;28;20239;-47
2023/08/17 04:13:34;;;;;;;10.93;10.00;;;;;;;15.07;100.00;98039.28;6181942;28;20232;-47
2023/08/17 04:16:37;;;;;;;13.27;11.97;;;;;;;14.97;100.00;98023.94;6202937;28;20228;-46
2023/08/17 04:19:39;;;;;;;12.33;11.13;;;;;;;15.05;100.00;98036.06;6185511;28;20255;-46
2023/08/17 04:22:43;;;;;;;11.17;10.17;;;;;;;15.05;100.00;98028.00;6185148;28;20243;-45
2023/08/17 04:25:47;;;;;;;11.40;10.27;;;;;;;15.05;100.00;98036.88;6203267;28;20240;-46
2023/08/17 04:28:49;;;;;;;11.73;10.70;;;;;;;15.05;100.00;98041.44;6183423;28;20327;-46
2023/08/17 04:31:53;;;;;;;11.00;9.83;;;;;;;15.05;100.00;98039.53;6194535;28;20267;-45
2023/08/17 04:35:00;;;;;;;10.30;9.40;;;;;;;15.09;100.00;98040.66;6170893;28;20240;-44
2023/08/17 04:38:02;;;;;;;10.87;9.83;;;;;;;15.11;100.00;98053.78;6202349;28;20228;-44
2023/08/17 04:41:05;;;;;;;12.10;11.00;;;;;;;15.14;100.00;98056.75;6184860;28;20236;-44
2023/08/17 04:44:11;;;;;;;12.93;10.63;;;;;;;15.15;100.00;98049.53;6201748;28;20234;-44
2023/08/17 04:47:15;;;;;;;11.37;10.37;;;;;;;15.06;100.00;98041.16;6186632;28;20761;-45
2023/08/17 04:50:18;;;;;;;12.47;11.30;;;;;;;15.13;100.00;98047.09;6184842;28;20239;-44
2023/08/17 04:53:20;;;;;;;11.87;10.70;;;;;;;15.16;100.00;98045.75;6202998;28;20243;-44
2023/08/17 04:56:24;;;;;;;12.30;11.10;;;;;;;15.15;100.00;98053.00;6185297;28;20243;-48
2023/08/17 04:59:27;;;;;;;12.80;11.70;;;;;;;15.13;100.00;98043.63;6187973;28;20331;-44
2023/08/17 05:02:29;;;;;;;12.50;11.33;;;;;;;15.12;100.00;98050.03;6185736;28;20236;-44
2023/08/17 05:05:32;;;;;;;14.13;12.63;;;;;;;15.11;100.00;98054.59;6185409;28;20234;-44
2023/08/17 05:08:34;;;;;;;13.53;12.17;;;;;;;15.14;100.00;98053.28;6206763;28;20228;-46
2023/08/17 05:11:37;;;;;;;13.77;12.47;;;;;;;15.16;100.00;98051.13;6189924;28;20220;-46
2023/08/17 05:14:39;;;;;;;12.80;11.50;;;;;;;15.18;100.00;98049.81;6190119;28;20235;-44
2023/08/17 05:17:41;;;;;;;14.80;13.50;;;;;;;15.22;100.00;98047.38;6207896;28;20725;-44
2023/08/17 05:20:46;;;;;;;16.83;14.03;;;;;;;15.27;100.00;98052.81;6190757;28;20767;-44
2023/08/17 05:23:48;;;;;;;14.30;12.93;;;;;;;15.35;100.00;98056.84;6206423;28;20225;-44
2023/08/17 05:26:51;;;;;;;13.77;12.57;;;;;;;15.38;100.00;98054.44;6187974;28;20228;-44
2023/08/17 05:29:53;;;;;;;13.73;12.33;;;;;;;15.44;100.00;98056.06;6188906;28;20322;-43
2023/08/17 05:32:56;;;;;;;13.67;12.47;;;;;;;15.47;100.00;98054.75;6170520;28;20247;-46
2023/08/17 05:35:58;;;;;;;12.80;11.70;;;;;;;15.51;100.00;98060.38;6190469;28;20260;-44
2023/08/17 05:39:01;;;;;;;12.70;11.47;;;;;;;15.57;100.00;98056.66;6189309;28;20259;-48
2023/08/17 05:42:04;;;;;;;12.50;11.30;;;;;;;15.60;100.00;98059.59;6189110;28;20231;-46
2023/08/17 05:45:07;;;;;;;11.57;10.57;;;;;;;15.65;100.00;98058.84;6206306;28;20211;-45
2023/08/17 05:48:09;;;;;;;11.80;10.80;;;;;;;15.64;100.00;98057.22;6206226;28;20240;-44
2023/08/17 05:51:12;;;;;;;11.83;10.83;;;;;;;15.76;100.00;98065.03;6206041;28;20235;-45
2023/08/17 05:54:14;;;;;;;12.67;11.47;;;;;;;15.73;100.00;98050.28;6205993;28;20231;-45
2023/08/17 05:57:17;;;;;;;12.07;11.00;;;;;;;15.85;100.00;98063.44;6207325;28;20235;-45
2023/08/17 06:00:19;;;;;;;11.50;10.50;;;;;;;15.82;100.00;98050.56;6205970;28;20567;-45
2023/08/17 06:03:22;;;;;;;12.60;11.50;;;;;;;15.92;100.00;98056.75;6205821;28;20538;-44
2023/08/17 06:06:26;;;;;;;10.67;9.77;;;;;;;16.00;100.00;98069.63;6205776;28;20318;-49
2023/08/17 06:09:28;;;;;;;10.80;9.90;;;;;;;16.08;100.00;98075.56;6189116;28;20243;-45
2023/08/17 06:12:31;;;;;;;13.87;12.47;;;;;;;16.12;100.00;98069.41;6206699;28;20224;-46
2023/08/17 06:15:33;;;;;;;11.47;10.43;;;;;;;16.18;100.00;98068.31;6205017;28;20245;-47
2023/08/17 06:18:36;;;;;;;20.87;18.97;;;;;;;16.25;100.00;98063.50;6206612;28;20239;-45
2023/08/17 06:21:39;;;;;;;16.93;15.40;;;;;;;16.33;100.00;98072.09;6205977;28;20235;-49
2023/08/17 06:24:41;;;;;;;15.20;13.80;;;;;;;16.40;100.00;98064.53;6204871;28;20244;-44
2023/08/17 06:27:44;;;;;;;15.67;14.20;;;;;;;16.37;100.00;98043.59;6203818;28;20644;-48
2023/08/17 06:30:46;;;;;;;19.20;13.77;;;;;;;16.42;100.00;98040.91;6206073;28;20233;-49
2023/08/17 06:33:48;;;;;;;14.07;12.73;;;;;;;16.70;100.00;98067.22;6208472;28;20325;-46
2023/08/17 06:36:59;;;;;;;12.87;11.60;;;;;;;16.81;100.00;98069.94;6204640;28;20239;-47
2023/08/17 06:40:05;;;;;;;12.03;10.83;;;;;;;16.79;100.00;98042.47;6199473;28;20315;-45
2023/08/17 06:43:07;;;;;;;11.27;10.07;;;;;;;17.02;100.00;98063.41;6205113;28;21001;-47
2023/08/17 06:46:09;;;;;;;12.43;11.33;;;;;;;17.13;100.00;98056.09;6205956;28;20235;-48
2023/08/17 06:49:12;;;;;;;12.23;11.10;;;;;;;17.27;100.00;98060.63;6187569;28;20493;-45
2023/08/17 06:52:15;;;;;;;11.97;10.87;;;;;;;17.28;100.00;98035.28;6188134;28;20240;-47
2023/08/17 06:55:18;;;;;;;13.53;12.10;;;;;;;17.58;100.00;98055.06;6204775;28;20247;-45
2023/08/17 06:58:21;;;;;;;14.30;12.90;;;;;;;17.74;100.00;98055.84;6203646;28;20232;-46
2023/08/17 07:01:24;;;;;;;12.23;11.07;;;;;;;17.92;100.00;98067.84;6204861;28;20232;-47
2023/08/17 07:04:27;;;;;;;13.07;11.90;;;;;;;18.06;100.00;98063.44;6183046;28;20303;-49
2023/08/17 07:07:31;;;;;;;12.97;11.83;;;;;;;18.22;100.00;98059.53;6205242;28;20367;-48
2023/08/17 07:10:33;;;;;;;12.43;11.33;;;;;;;18.36;100.00;98066.97;6207999;28;20287;-48
2023/08/17 07:13:37;;;;;;;13.43;12.13;;;;;;;18.37;100.00;98052.41;6209133;28;20236;-49
2023/08/17 07:16:42;;;;;;;12.63;11.43;;;;;;;18.60;100.00;98064.34;6205126;28;20291;-48
2023/08/17 07:19:46;;;;;;;12.87;11.70;;;;;;;18.71;100.00;98066.69;6206208;28;20228;-58
2023/08/17 07:23:08;;;;;;;11.50;10.60;;;;;;;18.85;100.00;98074.13;6203516;28;20235;-57
2023/08/17 07:26:11;;;;;;;12.70;11.53;;;;;;;18.98;100.00;98074.25;6204059;28;20761;-59
2023/08/17 07:29:14;;;;;;;12.07;11.03;;;;;;;18.98;100.00;98054.56;6201452;28;20366;-56
2023/08/17 07:32:16;;;;;;;13.80;12.40;;;;;;;19.12;100.00;98065.47;6185683;28;20732;-56
2023/08/17 07:35:19;;;;;;;11.33;10.40;;;;;;;19.30;100.00;98060.09;6199758;28;20232;-57
2023/08/17 07:38:21;;;;;;;13.20;12.10;;;;;;;19.57;100.00;98078.41;6202938;28;20706;-59
2023/08/17 07:41:23;;;;;;;12.80;11.70;;;;;;;19.69;100.00;98077.19;6208010;28;20721;-50
2023/08/17 07:44:28;;;;;;;13.13;11.93;;;;;;;19.81;100.00;98085.69;6204647;28;20386;-49
2023/08/17 07:47:30;;;;;;;14.27;12.77;;;;;;;19.89;100.00;98074.22;6185902;28;20263;-47
2023/08/17 07:50:33;;;;;;;13.70;12.27;;;;;;;20.01;100.00;98069.19;6202797;28;20236;-47
2023/08/17 07:53:35;;;;;;;13.43;12.07;;;;;;;20.11;100.00;98076.34;6204236;28;20232;-47
2023/08/17 07:56:37;;;;;;;12.53;11.33;;;;;;;20.24;100.00;98069.34;6187003;28;20243;-48
2023/08/17 07:59:40;;;;;;;14.17;12.93;;;;;;;20.34;100.00;98075.44;6201673;28;20348;-47
2023/08/17 08:02:42;;;;;;;14.67;13.10;;;;;;;20.44;100.00;98073.63;6203981;28;20377;-47
2023/08/17 08:05:44;;;;;;;13.90;12.60;;;;;;;20.52;100.00;98059.47;6203744;28;20954;-48
2023/08/17 08:08:47;;;;;;;13.27;12.13;;;;;;;20.63;100.00;98062.78;6204528;28;20272;-48
2023/08/17 08:11:49;;;;;;;13.03;11.90;;;;;;;20.69;100.00;98069.72;6185347;28;20232;-46
2023/08/17 08:14:52;;;;;;;12.27;11.07;;;;;;;20.73;100.00;98059.91;6203540;28;20315;-48
2023/08/17 08:17:55;;;;;;;12.70;11.40;;;;;;;20.76;100.00;98070.16;6173609;28;20243;-46
2023/08/17 08:20:58;;;;;;;11.70;10.70;;;;;;;20.78;100.00;98071.44;6191620;28;20266;-47
2023/08/17 08:24:02;;;;;;;11.73;10.30;;;;;;;20.63;100.00;98049.25;6205746;28;20825;-47
2023/08/17 08:27:34;;;;;;;10.30;9.40;;;;;;;20.75;100.00;98065.84;6203759;28;20229;-48
2023/08/17 08:30:39;;;;;;;10.73;9.63;;;;;;;20.83;100.00;98074.06;6209366;28;20244;-46
2023/08/17 08:33:43;;;;;;;10.77;9.10;;;;;;;20.87;100.00;98069.66;6205585;28;20243;-45
2023/08/17 08:36:45;;;;;;;10.10;8.90;;;;;;;21.20;100.00;98075.00;6206133;28;20290;-46
2023/08/17 08:39:55;;;;;;;8.90;8.13;;;;;;;21.25;100.00;98069.47;6204111;28;20812;-46
2023/08/17 08:46:44;;;;;;;8.57;7.63;;;;;;;21.40;100.00;98078.44;6315398;23;20237;-55
2023/08/17 08:50:05;;;;;;;8.50;7.70;;;;;;;21.46;98.28;98072.59;6196524;28;20602;-55
2023/08/17 08:53:13;;;;;;;9.43;8.53;;;;;;;21.50;93.24;98073.59;6193610;28;20315;-52
2023/08/17 08:56:19;;;;;;;9.17;7.90;;;;;;;21.60;95.03;98075.28;6192174;28;20239;-55
2023/08/17 08:59:24;;;;;;;9.47;8.47;;;;;;;21.61;99.17;98076.91;6178995;28;20232;-57
2023/08/17 09:02:27;;;;;;;8.67;7.60;;;;;;;21.47;100.00;98071.50;6176671;28;20296;-56
2023/08/17 09:05:31;;;;;;;7.77;7.00;;;;;;;21.58;98.85;98074.81;6195977;28;20224;-56
2023/08/17 09:08:34;;;;;;;10.03;7.73;;;;;;;21.72;99.53;98080.97;6195464;28;20264;-57
2023/08/17 09:11:36;;;;;;;8.30;7.50;;;;;;;21.73;99.08;98073.69;6191709;28;20225;-58
2023/08/17 09:14:40;;;;;;;8.37;7.67;;;;;;;21.81;88.18;98072.94;6195829;28;20315;-56
2023/08/17 09:17:43;;;;;;;8.40;7.60;;;;;;;22.06;85.03;98058.78;6190778;28;20232;-57
2023/08/17 09:20:47;;;;;;;8.40;7.50;;;;;;;22.15;86.64;98069.75;6197685;28;20721;-57
2023/08/17 09:23:55;;;;;;;8.40;7.60;;;;;;;22.11;80.52;98076.91;6195414;28;20225;-55
2023/08/17 09:27:01;;;;;;;9.87;7.20;;;;;;;22.06;80.84;98063.41;6192481;28;20320;-52
2023/08/17 09:30:09;;;;;;;7.93;7.23;;;;;;;22.11;84.57;98071.47;6197035;28;20331;-57
2023/08/17 09:33:12;;;;;;;8.20;7.40;;;;;;;22.00;85.22;98075.50;6194336;28;20229;-58
2023/08/17 09:36:14;;;;;;;7.10;6.43;;;;;;;21.99;85.88;98073.91;6192908;28;20245;-55
2023/08/17 09:39:18;;;;;;;9.00;7.77;;;;;;;22.05;90.83;98064.53;6186893;28;20231;-58
2023/08/17 09:42:22;;;;;;;6.93;6.27;;;;;;;21.79;82.48;98059.69;6194742;28;20224;-61
2023/08/17 09:45:27;;;;;;;6.97;6.37;;;;;;;21.86;82.99;98062.78;6188251;28;20753;-58
2023/08/17 09:48:30;;;;;;;6.60;6.10;;;;;;;21.86;86.34;98051.13;6194676;28;20237;-57
2023/08/17 09:51:34;;;;;;;8.30;7.23;;;;;;;22.03;83.70;98069.47;6194499;28;20244;-57
2023/08/17 09:54:37;;;;;;;9.90;7.17;;;;;;;21.93;81.66;98065.09;6195105;28;20268;-58
2023/08/17 09:57:42;;;;;;;6.80;6.20;;;;;;;21.95;82.83;98065.56;6193626;28;20245;-56
2023/08/17 10:00:50;;;;;;;7.67;6.97;;;;;;;22.08;80.04;98053.06;6193185;28;20319;-59
2023/08/17 10:03:55;;;;;;;8.13;6.97;;;;;;;22.18;81.27;98057.50;6194098;28;20637;-55
2023/08/17 10:07:04;;;;;;;7.20;6.60;;;;;;;22.22;86.59;98055.78;6193985;28;20241;-56
2023/08/17 10:10:06;;;;;;;6.47;5.87;;;;;;;22.29;80.46;98056.94;6194357;28;20348;-58
2023/08/17 10:13:11;;;;;;;6.87;6.23;;;;;;;22.44;78.21;98057.66;6194321;28;20896;-58
2023/08/17 10:16:28;;;;;;;7.20;6.00;;;;;;;22.51;83.25;98064.28;6189333;28;20240;-57
2023/08/17 10:19:48;;;;;;;7.43;6.37;;;;;;;22.48;76.65;98061.38;6197287;28;20249;-58
2023/08/17 10:22:56;;;;;;;6.43;5.53;;;;;;;22.52;75.21;98054.22;6194263;28;20632;-58
2023/08/17 10:26:02;;;;;;;8.47;5.97;;;;;;;22.62;81.44;98048.50;6189314;28;20327;-58
2023/08/17 10:29:06;;;;;;;5.63;4.90;;;;;;;22.54;75.46;98044.63;6191217;28;20285;-59
2023/08/17 10:32:18;;;;;;;4.93;4.53;;;;;;;22.52;74.41;98041.44;6174215;28;20228;-59
2023/08/17 10:35:21;;;;;;;5.53;5.03;;;;;;;22.57;76.77;98040.50;6190681;28;20240;-58
2023/08/17 10:38:23;;;;;;;5.00;4.57;;;;;;;22.66;77.94;98038.63;6188669;28;20228;-59
2023/08/17 10:41:25;;;;;;;6.80;5.47;;;;;;;22.71;76.36;98045.81;6192410;28;20259;-58
2023/08/17 10:44:49;;;;;;;5.70;5.20;;;;;;;22.81;76.36;98038.22;6193685;28;20722;-60
2023/08/17 10:48:20;;;;;;;6.60;5.03;;;;;;;23.07;70.27;98032.91;6191758;28;20265;-59
2023/08/17 10:51:24;;;;;;;5.37;4.87;;;;;;;23.04;70.01;98022.66;6189885;28;20243;-60
2023/08/17 10:54:37;;;;;;;5.70;4.97;;;;;;;23.02;71.99;98014.03;6193916;28;20315;-60
2023/08/17 10:57:44;;;;;;;5.35;4.85;;;;;;;23.10;70.28;98012.44;6189549;28;20232;-58
2023/08/17 11:00:54;;;;;;;5.68;5.22;;;;;;;23.15;71.63;98015.84;6193371;28;20899;-57
2023/08/17 11:04:11;;;;;;;4.80;4.45;;;;;;;23.27;74.44;98017.94;6188634;28;20240;-60
2023/08/17 11:07:15;;;;;;;5.43;4.93;;;;;;;23.37;71.42;98019.56;6198619;28;20608;-56
2023/08/17 11:10:21;;;;;;;4.47;4.07;;;;;;;23.47;72.22;98016.53;6191577;28;20243;-57
2023/08/17 11:13:31;;;;;;;4.70;4.20;;;;;;;23.54;69.43;98014.13;6191800;28;20248;-60
2023/08/17 11:16:33;;;;;;;4.90;4.32;;;;;;;23.58;69.71;98027.91;6188510;28;20275;-59
2023/08/17 11:19:40;;;;;;;4.75;4.25;;;;;;;23.71;65.70;98021.56;6176397;28;20237;-59
2023/08/17 11:22:42;;;;;;;4.10;3.70;;;;;;;23.86;64.82;98012.91;6193075;28;20237;-58
2023/08/17 11:25:46;;;;;;;6.60;4.43;;;;;;;23.78;65.63;97994.66;6192871;28;20243;-60
2023/08/17 11:28:49;;;;;;;5.25;3.78;;;;;;;23.98;65.71;98020.44;6189674;28;20375;-61
2023/08/17 11:31:52;;;;;;;5.28;4.07;;;;;;;24.09;62.07;98005.41;6190813;28;20607;-58
2023/08/17 11:34:54;;;;;;;4.10;3.70;;;;;;;24.20;58.05;98011.31;6174718;28;20929;-60
2023/08/17 11:38:01;;;;;;;3.97;3.63;;;;;;;24.26;59.53;98001.84;6186983;28;20239;-56
2023/08/17 11:41:11;;;;;;;4.85;3.63;;;;;;;24.36;59.35;98004.25;6188981;28;20240;-60
2023/08/17 11:44:18;;;;;;;4.32;3.92;;;;;;;24.49;58.98;98007.91;6192425;28;20256;-58
2023/08/17 11:47:25;;;;;;;4.40;4.00;;;;;;;24.56;60.33;98013.63;6132489;28;20233;-55
2023/08/17 11:50:34;;;;;;;4.45;4.00;;;;;;;24.59;64.91;98010.28;6144605;28;20237;-58
2023/08/17 11:53:41;;;;;;;4.18;3.55;;;;;;;24.62;59.34;98011.53;6144154;28;20714;-57
2023/08/17 11:56:43;;;;;;;4.82;4.20;;;;;;;24.54;61.07;98015.09;6145488;28;20242;-58
2023/08/17 11:59:45;;;;;;;4.35;4.05;;;;;;;24.56;58.69;98012.84;6143934;28;20242;-58
2023/08/17 12:02:49;;;;;;;8.15;4.20;;;;;;;24.56;57.37;98012.84;6127389;28;20328;-59
2023/08/17 12:05:54;;;;;;;4.90;4.50;;;;;;;24.80;54.47;98004.91;6145659;28;20225;-59
2023/08/17 12:08:58;;;;;;;5.50;4.10;;;;;;;24.64;58.42;98012.03;6140461;28;20239;-58
2023/08/17 12:12:01;;;;;;;4.45;3.88;;;;;;;24.38;59.39;98010.19;6144998;28;20245;-60
2023/08/17 12:15:06;;;;;;;5.75;4.07;;;;;;;24.35;61.67;97999.91;6144333;28;20238;-59
2023/08/17 12:18:08;;;;;;;6.07;4.82;;;;;;;24.27;64.00;97984.38;6139203;28;20238;-57
2023/08/17 12:21:10;;;;;;;7.32;4.25;;;;;;;24.41;63.01;97978.75;6141126;28;20313;-60
2023/08/17 12:24:14;;;;;;;5.53;4.57;;;;;;;24.43;60.58;97957.44;6143076;28;20256;-60
2023/08/17 12:27:18;;;;;;;5.15;3.88;;;;;;;24.87;54.93;97985.31;6137723;28;20276;-60
2023/08/17 12:30:36;;;;;;;4.20;3.80;;;;;;;24.90;53.69;97963.66;6141872;28;20238;-56
2023/08/17 12:33:51;;;;;;;4.55;4.13;;;;;;;25.00;54.87;97970.66;6141940;28;20323;-58
2023/08/17 12:36:55;;;;;;;3.90;3.47;;;;;;;25.10;49.74;97958.63;6138532;28;20248;-59
2023/08/17 12:39:57;;;;;;;5.20;3.83;;;;;;;25.16;56.00;97971.72;6142700;28;20333;-60
2023/08/17 12:42:59;;;;;;;5.00;3.55;;;;;;;25.06;52.61;97960.38;6143352;28;20245;-57
2023/08/17 12:46:02;;;;;;;4.00;3.60;;;;;;;25.09;52.09;97957.81;6148367;28;20233;-60
2023/08/17 12:49:04;;;;;;;5.07;4.15;;;;;;;25.01;52.84;97925.91;6165713;28;20730;-58
2023/08/17 12:52:06;;;;;;;5.35;4.40;;;;;;;25.34;55.60;97949.81;6167848;28;20581;-57
2023/08/17 12:55:11;;;;;;;4.80;4.28;;;;;;;25.22;58.09;97931.41;6167462;28;20233;-58
2023/08/17 12:58:14;;;;;;;6.35;4.55;;;;;;;25.48;55.74;97945.69;6167098;28;20772;-58
2023/08/17 13:01:17;;;;;;;5.45;4.72;;;;;;;25.70;56.77;97941.00;6167654;28;20845;-60
2023/08/17 13:04:20;;;;;;;5.97;5.28;;;;;;;25.51;55.72;97900.56;6149551;28;20276;-59
2023/08/17 13:07:22;;;;;;;6.13;4.80;;;;;;;25.62;55.28;97953.59;6167368;28;20245;-57
2023/08/17 13:10:24;;;;;;;8.55;4.97;;;;;;;25.53;54.05;97947.41;6166542;28;20233;-56
2023/08/17 13:13:27;;;;;;;6.15;5.00;;;;;;;25.43;56.49;97953.28;6166358;28;20241;-59
2023/08/17 13:16:29;;;;;;;6.88;4.97;;;;;;;25.24;56.89;97945.53;6165734;28;20290;-56
2023/08/17 13:19:32;;;;;;;6.00;4.78;;;;;;;25.18;56.93;97942.22;6166526;28;20794;-59
2023/08/17 13:22:34;;;;;;;11.77;5.18;;;;;;;25.05;56.50;97942.41;6168181;28;20238;-58
2023/08/17 13:25:37;;;;;;;6.15;4.68;;;;;;;24.90;58.25;97920.06;6167998;28;20244;-59
2023/08/17 13:28:42;;;;;;;5.40;4.57;;;;;;;24.99;57.76;97946.47;6170420;28;20240;-60
2023/08/17 13:31:47;;;;;;;5.30;4.78;;;;;;;25.04;59.68;97933.44;6170043;28;20248;-59
2023/08/17 13:34:50;;;;;;;5.82;4.90;;;;;;;25.00;55.41;97937.94;6174997;28;20711;-60
2023/08/17 13:37:57;;;;;;;5.70;4.63;;;;;;;24.99;59.33;97941.03;6167850;28;20242;-59
2023/08/17 13:41:00;;;;;;;5.00;4.50;;;;;;;24.91;60.27;97935.28;6146764;28;20336;-59
2023/08/17 13:44:07;;;;;;;5.22;4.72;;;;;;;24.85;60.32;97931.16;6137001;28;20478;-58
2023/08/17 13:47:12;;;;;;;5.40;4.82;;;;;;;24.86;60.99;97929.22;6155636;28;20238;-59
2023/08/17 13:50:15;;;;;;;6.90;4.65;;;;;;;24.91;57.06;97929.03;6170461;28;20732;-58
2023/08/17 13:53:17;;;;;;;7.40;4.45;;;;;;;25.02;56.80;97926.72;6169116;28;20244;-57
2023/08/17 13:56:20;;;;;;;5.78;4.60;;;;;;;25.12;53.18;97929.91;6153028;28;20328;-60
2023/08/17 13:59:22;;;;;;;4.80;4.40;;;;;;;25.12;54.49;97924.44;6170840;28;20341;-59
2023/08/17 14:02:24;;;;;;;7.32;4.75;;;;;;;25.16;56.91;97930.03;6171241;28;20236;-58
2023/08/17 14:05:31;;;;;;;4.63;4.22;;;;;;;25.06;59.75;97925.72;6171185;28;20223;-60
2023/08/17 14:08:34;;;;;;;6.05;4.55;;;;;;;25.05;54.21;97920.59;6168539;28;20319;-59
2023/08/17 14:11:36;;;;;;;6.13;4.63;;;;;;;25.12;54.88;97910.00;6171309;28;20233;-57
2023/08/17 14:14:39;;;;;;;4.18;3.78;;;;;;;24.99;53.02;97913.75;6166342;28;20237;-58
2023/08/17 14:17:41;;;;;;;4.63;4.22;;;;;;;25.06;55.25;97908.56;6169706;28;20316;-59